sensor_id;sensor_type;location;lat;lon;timestamp;P1;durP1;ratioP1;P2;durP2;ratioP2
19619;SDS011;9957;52.282;21.110;2023-01-29T00:00:38;16.97;;;5.53;;
19619;SDS011;9957;52.282;21.110;2023-01-29T00:03:04;12.83;;;5.33;;
19619;SDS011;9957;52.282;21.110;2023-01-29T00:05:30;13.50;;;5.57;;
19619;SDS011;9957;52.282;21.110;2023-01-29T00:07:56;12.93;;;5.63;;
19619;SDS011;9957;52.282;21.110;2023-01-29T00:10:23;14.53;;;5.27;;
19619;SDS011;9957;52.282;21.110;2023-01-29T00:12:49;16.93;;;5.63;;
19619;SDS011;9957;52.282;21.110;2023-01-29T00:15:16;15.13;;;5.80;;
19619;SDS011;9957;52.282;21.110;2023-01-29T00:17:42;12.83;;;5.63;;
19619;SDS011;9957;52.282;21.110;2023-01-29T00:20:09;13.70;;;5.80;;
19619;SDS011;9957;52.282;21.110;2023-01-29T00:22:35;13.10;;;5.67;;
19619;SDS011;9957;52.282;21.110;2023-01-29T00:25:01;23.67;;;5.93;;
19619;SDS011;9957;52.282;21.110;2023-01-29T00:27:28;15.67;;;5.50;;
19619;SDS011;9957;52.282;21.110;2023-01-29T00:29:54;15.93;;;5.73;;
19619;SDS011;9957;52.282;21.110;2023-01-29T00:32:42;15.10;;;6.03;;
19619;SDS011;9957;52.282;21.110;2023-01-29T00:35:09;14.67;;;6.50;;
19619;SDS011;9957;52.282;21.110;2023-01-29T00:37:35;13.67;;;5.57;;
19619;SDS011;9957;52.282;21.110;2023-01-29T00:40:02;14.20;;;5.60;;
19619;SDS011;9957;52.282;21.110;2023-01-29T00:42:28;16.10;;;5.10;;
19619;SDS011;9957;52.282;21.110;2023-01-29T00:45:12;12.77;;;5.67;;
19619;SDS011;9957;52.282;21.110;2023-01-29T00:47:38;16.17;;;6.27;;
19619;SDS011;9957;52.282;21.110;2023-01-29T00:50:06;15.10;;;5.43;;
19619;SDS011;9957;52.282;21.110;2023-01-29T00:52:32;12.40;;;5.53;;
19619;SDS011;9957;52.282;21.110;2023-01-29T00:55:00;13.90;;;5.63;;
19619;SDS011;9957;52.282;21.110;2023-01-29T00:57:26;16.83;;;6.10;;
19619;SDS011;9957;52.282;21.110;2023-01-29T00:59:53;12.97;;;5.03;;
19619;SDS011;9957;52.282;21.110;2023-01-29T01:02:19;13.37;;;5.30;;
19619;SDS011;9957;52.282;21.110;2023-01-29T01:05:04;12.33;;;5.40;;
19619;SDS011;9957;52.282;21.110;2023-01-29T01:07:31;13.27;;;5.43;;
19619;SDS011;9957;52.282;21.110;2023-01-29T01:09:57;10.23;;;4.80;;
19619;SDS011;9957;52.282;21.110;2023-01-29T01:12:42;11.07;;;4.97;;
19619;SDS011;9957;52.282;21.110;2023-01-29T01:15:08;12.20;;;4.50;;
19619;SDS011;9957;52.282;21.110;2023-01-29T01:17:35;11.03;;;4.70;;
19619;SDS011;9957;52.282;21.110;2023-01-29T01:20:01;12.00;;;4.43;;
19619;SDS011;9957;52.282;21.110;2023-01-29T01:22:27;10.40;;;4.80;;
19619;SDS011;9957;52.282;21.110;2023-01-29T01:24:53;8.93;;;4.23;;
19619;SDS011;9957;52.282;21.110;2023-01-29T01:27:19;8.20;;;4.03;;
19619;SDS011;9957;52.282;21.110;2023-01-29T01:29:45;12.03;;;4.23;;
19619;SDS011;9957;52.282;21.110;2023-01-29T01:32:12;10.13;;;4.30;;
19619;SDS011;9957;52.282;21.110;2023-01-29T01:34:38;13.03;;;4.50;;
19619;SDS011;9957;52.282;21.110;2023-01-29T01:37:04;8.20;;;3.80;;
19619;SDS011;9957;52.282;21.110;2023-01-29T01:39:30;14.37;;;4.10;;
19619;SDS011;9957;52.282;21.110;2023-01-29T01:41:56;6.77;;;3.70;;
19619;SDS011;9957;52.282;21.110;2023-01-29T01:47:07;10.50;;;3.40;;
19619;SDS011;9957;52.282;21.110;2023-01-29T01:49:33;8.07;;;3.80;;
19619;SDS011;9957;52.282;21.110;2023-01-29T01:51:59;9.60;;;3.80;;
19619;SDS011;9957;52.282;21.110;2023-01-29T01:54:28;11.17;;;3.77;;
19619;SDS011;9957;52.282;21.110;2023-01-29T01:56:56;10.43;;;4.20;;
19619;SDS011;9957;52.282;21.110;2023-01-29T01:59:33;9.27;;;3.60;;
19619;SDS011;9957;52.282;21.110;2023-01-29T02:02:00;7.63;;;3.10;;
19619;SDS011;9957;52.282;21.110;2023-01-29T02:04:45;6.97;;;3.50;;
19619;SDS011;9957;52.282;21.110;2023-01-29T02:07:31;10.53;;;3.67;;
19619;SDS011;9957;52.282;21.110;2023-01-29T02:10:16;12.20;;;3.93;;
19619;SDS011;9957;52.282;21.110;2023-01-29T02:12:43;8.87;;;4.00;;
19619;SDS011;9957;52.282;21.110;2023-01-29T02:15:10;11.73;;;4.33;;
19619;SDS011;9957;52.282;21.110;2023-01-29T02:17:36;11.50;;;4.53;;
19619;SDS011;9957;52.282;21.110;2023-01-29T02:20:19;13.93;;;5.10;;
19619;SDS011;9957;52.282;21.110;2023-01-29T02:30:39;11.73;;;4.57;;
19619;SDS011;9957;52.282;21.110;2023-01-29T02:38:18;16.37;;;3.70;;
19619;SDS011;9957;52.282;21.110;2023-01-29T02:40:51;12.13;;;4.57;;
19619;SDS011;9957;52.282;21.110;2023-01-29T02:46:00;14.83;;;4.67;;
19619;SDS011;9957;52.282;21.110;2023-01-29T02:48:28;13.27;;;4.23;;
19619;SDS011;9957;52.282;21.110;2023-01-29T02:51:00;10.53;;;4.60;;
19619;SDS011;9957;52.282;21.110;2023-01-29T02:53:32;13.70;;;4.43;;
19619;SDS011;9957;52.282;21.110;2023-01-29T02:56:10;10.83;;;4.37;;
19619;SDS011;9957;52.282;21.110;2023-01-29T02:58:49;14.13;;;4.17;;
19619;SDS011;9957;52.282;21.110;2023-01-29T03:01:19;13.50;;;4.53;;
19619;SDS011;9957;52.282;21.110;2023-01-29T03:03:48;12.30;;;5.03;;
19619;SDS011;9957;52.282;21.110;2023-01-29T03:08:45;10.63;;;4.67;;
19619;SDS011;9957;52.282;21.110;2023-01-29T03:11:15;13.37;;;5.00;;
19619;SDS011;9957;52.282;21.110;2023-01-29T03:13:45;11.57;;;4.57;;
19619;SDS011;9957;52.282;21.110;2023-01-29T03:16:16;13.50;;;4.60;;
19619;SDS011;9957;52.282;21.110;2023-01-29T03:18:46;9.07;;;4.10;;
19619;SDS011;9957;52.282;21.110;2023-01-29T03:21:19;14.30;;;4.77;;
19619;SDS011;9957;52.282;21.110;2023-01-29T03:24:04;13.17;;;4.70;;
19619;SDS011;9957;52.282;21.110;2023-01-29T03:26:50;11.30;;;4.50;;
19619;SDS011;9957;52.282;21.110;2023-01-29T03:29:35;14.07;;;4.60;;
19619;SDS011;9957;52.282;21.110;2023-01-29T03:32:21;9.30;;;4.23;;
19619;SDS011;9957;52.282;21.110;2023-01-29T03:34:49;10.70;;;4.70;;
19619;SDS011;9957;52.282;21.110;2023-01-29T03:37:21;11.87;;;4.37;;
19619;SDS011;9957;52.282;21.110;2023-01-29T03:39:50;12.83;;;4.57;;
19619;SDS011;9957;52.282;21.110;2023-01-29T03:53:10;14.10;;;5.10;;
19619;SDS011;9957;52.282;21.110;2023-01-29T04:00:37;10.40;;;4.50;;
19619;SDS011;9957;52.282;21.110;2023-01-29T04:03:11;15.17;;;5.37;;
19619;SDS011;9957;52.282;21.110;2023-01-29T04:05:48;10.53;;;4.77;;
19619;SDS011;9957;52.282;21.110;2023-01-29T04:08:19;11.07;;;4.83;;
19619;SDS011;9957;52.282;21.110;2023-01-29T04:10:48;11.03;;;4.37;;
19619;SDS011;9957;52.282;21.110;2023-01-29T04:13:15;14.37;;;5.07;;
19619;SDS011;9957;52.282;21.110;2023-01-29T04:15:45;10.30;;;4.80;;
19619;SDS011;9957;52.282;21.110;2023-01-29T04:18:11;16.60;;;4.93;;
19619;SDS011;9957;52.282;21.110;2023-01-29T04:20:37;12.50;;;4.63;;
19619;SDS011;9957;52.282;21.110;2023-01-29T04:23:05;10.33;;;4.50;;
19619;SDS011;9957;52.282;21.110;2023-01-29T04:25:34;12.90;;;4.60;;
19619;SDS011;9957;52.282;21.110;2023-01-29T04:28:04;14.33;;;4.43;;
19619;SDS011;9957;52.282;21.110;2023-01-29T04:35:31;10.90;;;4.47;;
19619;SDS011;9957;52.282;21.110;2023-01-29T04:38:05;9.97;;;4.13;;
19619;SDS011;9957;52.282;21.110;2023-01-29T04:43:57;11.30;;;4.70;;
19619;SDS011;9957;52.282;21.110;2023-01-29T04:51:31;16.50;;;4.33;;
19619;SDS011;9957;52.282;21.110;2023-01-29T04:56:53;14.40;;;4.57;;
19619;SDS011;9957;52.282;21.110;2023-01-29T04:59:24;10.03;;;4.13;;
19619;SDS011;9957;52.282;21.110;2023-01-29T05:01:52;13.73;;;4.57;;
19619;SDS011;9957;52.282;21.110;2023-01-29T05:04:18;10.57;;;4.73;;
19619;SDS011;9957;52.282;21.110;2023-01-29T05:06:45;10.77;;;4.20;;
19619;SDS011;9957;52.282;21.110;2023-01-29T05:09:12;12.93;;;4.47;;
19619;SDS011;9957;52.282;21.110;2023-01-29T05:11:39;9.47;;;4.67;;
19619;SDS011;9957;52.282;21.110;2023-01-29T05:14:06;9.47;;;4.73;;
19619;SDS011;9957;52.282;21.110;2023-01-29T05:16:37;15.27;;;4.90;;
19619;SDS011;9957;52.282;21.110;2023-01-29T05:19:11;13.47;;;4.63;;
19619;SDS011;9957;52.282;21.110;2023-01-29T05:21:38;12.37;;;4.83;;
19619;SDS011;9957;52.282;21.110;2023-01-29T05:24:12;13.37;;;4.93;;
19619;SDS011;9957;52.282;21.110;2023-01-29T05:26:39;15.07;;;5.50;;
19619;SDS011;9957;52.282;21.110;2023-01-29T05:29:24;17.67;;;5.70;;
19619;SDS011;9957;52.282;21.110;2023-01-29T05:31:50;11.30;;;5.07;;
19619;SDS011;9957;52.282;21.110;2023-01-29T05:34:16;12.97;;;5.07;;
19619;SDS011;9957;52.282;21.110;2023-01-29T05:36:43;12.87;;;5.10;;
19619;SDS011;9957;52.282;21.110;2023-01-29T05:39:09;13.40;;;4.97;;
19619;SDS011;9957;52.282;21.110;2023-01-29T05:41:35;11.47;;;4.90;;
19619;SDS011;9957;52.282;21.110;2023-01-29T05:44:01;12.73;;;4.63;;
19619;SDS011;9957;52.282;21.110;2023-01-29T05:46:27;11.67;;;5.43;;
19619;SDS011;9957;52.282;21.110;2023-01-29T05:48:53;12.13;;;4.93;;
19619;SDS011;9957;52.282;21.110;2023-01-29T05:51:19;17.43;;;5.43;;
19619;SDS011;9957;52.282;21.110;2023-01-29T05:53:45;13.27;;;5.03;;
19619;SDS011;9957;52.282;21.110;2023-01-29T05:56:11;15.60;;;5.40;;
19619;SDS011;9957;52.282;21.110;2023-01-29T05:58:38;16.13;;;5.00;;
19619;SDS011;9957;52.282;21.110;2023-01-29T06:01:10;13.63;;;4.97;;
19619;SDS011;9957;52.282;21.110;2023-01-29T06:03:36;12.27;;;4.90;;
19619;SDS011;9957;52.282;21.110;2023-01-29T06:06:02;14.67;;;5.43;;
19619;SDS011;9957;52.282;21.110;2023-01-29T06:08:28;12.57;;;5.27;;
19619;SDS011;9957;52.282;21.110;2023-01-29T06:10:55;29.70;;;5.30;;
19619;SDS011;9957;52.282;21.110;2023-01-29T06:13:21;14.10;;;5.47;;
19619;SDS011;9957;52.282;21.110;2023-01-29T06:15:47;18.03;;;6.33;;
19619;SDS011;9957;52.282;21.110;2023-01-29T06:18:13;13.33;;;4.97;;
19619;SDS011;9957;52.282;21.110;2023-01-29T06:20:39;14.80;;;5.77;;
19619;SDS011;9957;52.282;21.110;2023-01-29T06:23:05;16.33;;;6.00;;
19619;SDS011;9957;52.282;21.110;2023-01-29T06:25:31;16.43;;;6.17;;
19619;SDS011;9957;52.282;21.110;2023-01-29T06:27:57;18.43;;;5.80;;
19619;SDS011;9957;52.282;21.110;2023-01-29T06:30:23;15.50;;;5.77;;
19619;SDS011;9957;52.282;21.110;2023-01-29T06:32:49;19.70;;;5.37;;
19619;SDS011;9957;52.282;21.110;2023-01-29T06:35:15;15.60;;;5.40;;
19619;SDS011;9957;52.282;21.110;2023-01-29T06:37:41;12.73;;;5.40;;
19619;SDS011;9957;52.282;21.110;2023-01-29T06:40:07;16.33;;;6.80;;
19619;SDS011;9957;52.282;21.110;2023-01-29T06:42:34;19.33;;;6.73;;
19619;SDS011;9957;52.282;21.110;2023-01-29T06:45:00;17.83;;;6.40;;
19619;SDS011;9957;52.282;21.110;2023-01-29T06:47:26;18.07;;;6.30;;
19619;SDS011;9957;52.282;21.110;2023-01-29T06:49:52;14.27;;;6.20;;
19619;SDS011;9957;52.282;21.110;2023-01-29T06:52:19;18.10;;;6.83;;
19619;SDS011;9957;52.282;21.110;2023-01-29T06:54:45;13.43;;;5.53;;
19619;SDS011;9957;52.282;21.110;2023-01-29T06:57:11;17.10;;;6.77;;
19619;SDS011;9957;52.282;21.110;2023-01-29T06:59:38;15.50;;;6.33;;
19619;SDS011;9957;52.282;21.110;2023-01-29T07:02:04;20.67;;;7.47;;
19619;SDS011;9957;52.282;21.110;2023-01-29T07:04:30;17.60;;;6.57;;
19619;SDS011;9957;52.282;21.110;2023-01-29T07:06:58;20.13;;;6.73;;
19619;SDS011;9957;52.282;21.110;2023-01-29T07:09:24;13.73;;;5.37;;
19619;SDS011;9957;52.282;21.110;2023-01-29T07:11:50;14.07;;;5.23;;
19619;SDS011;9957;52.282;21.110;2023-01-29T07:14:16;20.13;;;7.10;;
19619;SDS011;9957;52.282;21.110;2023-01-29T07:16:42;17.33;;;6.60;;
19619;SDS011;9957;52.282;21.110;2023-01-29T07:19:08;19.90;;;6.23;;
19619;SDS011;9957;52.282;21.110;2023-01-29T07:21:34;13.67;;;5.93;;
19619;SDS011;9957;52.282;21.110;2023-01-29T07:24:00;15.47;;;5.90;;
19619;SDS011;9957;52.282;21.110;2023-01-29T07:26:27;18.07;;;5.83;;
19619;SDS011;9957;52.282;21.110;2023-01-29T07:28:53;20.27;;;5.90;;
19619;SDS011;9957;52.282;21.110;2023-01-29T07:31:19;14.70;;;5.73;;
19619;SDS011;9957;52.282;21.110;2023-01-29T07:33:46;17.10;;;5.97;;
19619;SDS011;9957;52.282;21.110;2023-01-29T07:36:13;17.50;;;5.93;;
19619;SDS011;9957;52.282;21.110;2023-01-29T07:38:39;15.53;;;5.67;;
19619;SDS011;9957;52.282;21.110;2023-01-29T07:41:06;18.57;;;6.83;;
19619;SDS011;9957;52.282;21.110;2023-01-29T07:43:32;18.30;;;6.57;;
19619;SDS011;9957;52.282;21.110;2023-01-29T07:46:02;14.17;;;5.97;;
19619;SDS011;9957;52.282;21.110;2023-01-29T07:48:28;23.07;;;6.90;;
19619;SDS011;9957;52.282;21.110;2023-01-29T07:50:54;16.10;;;6.17;;
19619;SDS011;9957;52.282;21.110;2023-01-29T07:53:21;21.13;;;6.30;;
19619;SDS011;9957;52.282;21.110;2023-01-29T07:55:47;20.70;;;7.30;;
19619;SDS011;9957;52.282;21.110;2023-01-29T07:58:13;29.57;;;9.63;;
19619;SDS011;9957;52.282;21.110;2023-01-29T08:00:39;23.40;;;8.43;;
19619;SDS011;9957;52.282;21.110;2023-01-29T08:03:10;21.63;;;8.17;;
19619;SDS011;9957;52.282;21.110;2023-01-29T08:05:36;24.43;;;9.83;;
19619;SDS011;9957;52.282;21.110;2023-01-29T08:08:02;15.77;;;6.30;;
19619;SDS011;9957;52.282;21.110;2023-01-29T08:10:28;17.77;;;6.97;;
19619;SDS011;9957;52.282;21.110;2023-01-29T08:12:58;17.43;;;7.13;;
19619;SDS011;9957;52.282;21.110;2023-01-29T08:15:25;18.40;;;7.17;;
19619;SDS011;9957;52.282;21.110;2023-01-29T08:17:51;16.87;;;6.63;;
19619;SDS011;9957;52.282;21.110;2023-01-29T08:20:17;15.90;;;6.20;;
19619;SDS011;9957;52.282;21.110;2023-01-29T08:22:44;14.57;;;5.50;;
19619;SDS011;9957;52.282;21.110;2023-01-29T08:25:10;19.00;;;6.87;;
19619;SDS011;9957;52.282;21.110;2023-01-29T08:27:37;14.57;;;5.57;;
19619;SDS011;9957;52.282;21.110;2023-01-29T08:30:03;17.10;;;6.63;;
19619;SDS011;9957;52.282;21.110;2023-01-29T08:32:30;12.63;;;5.40;;
19619;SDS011;9957;52.282;21.110;2023-01-29T08:34:56;13.23;;;5.33;;
19619;SDS011;9957;52.282;21.110;2023-01-29T08:37:22;27.20;;;10.30;;
19619;SDS011;9957;52.282;21.110;2023-01-29T08:39:48;13.80;;;6.10;;
19619;SDS011;9957;52.282;21.110;2023-01-29T08:42:14;25.60;;;7.67;;
19619;SDS011;9957;52.282;21.110;2023-01-29T08:44:40;12.50;;;5.67;;
19619;SDS011;9957;52.282;21.110;2023-01-29T08:47:06;15.13;;;6.50;;
19619;SDS011;9957;52.282;21.110;2023-01-29T08:49:32;23.63;;;6.57;;
19619;SDS011;9957;52.282;21.110;2023-01-29T08:51:58;23.40;;;7.03;;
19619;SDS011;9957;52.282;21.110;2023-01-29T08:54:24;18.60;;;6.97;;
19619;SDS011;9957;52.282;21.110;2023-01-29T08:56:50;20.37;;;5.73;;
19619;SDS011;9957;52.282;21.110;2023-01-29T08:59:16;15.20;;;5.53;;
19619;SDS011;9957;52.282;21.110;2023-01-29T09:01:43;15.17;;;5.50;;
19619;SDS011;9957;52.282;21.110;2023-01-29T09:04:09;19.80;;;5.47;;
19619;SDS011;9957;52.282;21.110;2023-01-29T09:06:35;16.57;;;5.90;;
19619;SDS011;9957;52.282;21.110;2023-01-29T09:09:01;20.00;;;7.10;;
19619;SDS011;9957;52.282;21.110;2023-01-29T09:11:27;16.77;;;5.77;;
19619;SDS011;9957;52.282;21.110;2023-01-29T09:13:53;12.00;;;5.83;;
19619;SDS011;9957;52.282;21.110;2023-01-29T09:16:19;16.73;;;6.63;;
19619;SDS011;9957;52.282;21.110;2023-01-29T09:18:45;13.13;;;5.70;;
19619;SDS011;9957;52.282;21.110;2023-01-29T09:21:11;15.73;;;5.53;;
19619;SDS011;9957;52.282;21.110;2023-01-29T09:23:37;17.03;;;6.50;;
19619;SDS011;9957;52.282;21.110;2023-01-29T09:26:03;22.73;;;7.03;;
19619;SDS011;9957;52.282;21.110;2023-01-29T09:28:29;21.57;;;5.87;;
19619;SDS011;9957;52.282;21.110;2023-01-29T09:30:55;24.00;;;6.50;;
19619;SDS011;9957;52.282;21.110;2023-01-29T09:33:21;18.57;;;7.07;;
19619;SDS011;9957;52.282;21.110;2023-01-29T09:35:48;17.93;;;7.27;;
19619;SDS011;9957;52.282;21.110;2023-01-29T09:38:14;19.63;;;6.30;;
19619;SDS011;9957;52.282;21.110;2023-01-29T09:40:47;21.13;;;6.37;;
19619;SDS011;9957;52.282;21.110;2023-01-29T09:43:30;18.57;;;7.30;;
19619;SDS011;9957;52.282;21.110;2023-01-29T09:46:59;16.53;;;6.17;;
19619;SDS011;9957;52.282;21.110;2023-01-29T09:49:03;13.73;;;5.83;;
19619;SDS011;9957;52.282;21.110;2023-01-29T09:51:40;16.83;;;5.80;;
19619;SDS011;9957;52.282;21.110;2023-01-29T09:54:15;19.10;;;6.00;;
19619;SDS011;9957;52.282;21.110;2023-01-29T09:56:42;19.83;;;7.50;;
19619;SDS011;9957;52.282;21.110;2023-01-29T09:59:10;19.73;;;7.33;;
19619;SDS011;9957;52.282;21.110;2023-01-29T10:14:38;27.87;;;10.93;;
19619;SDS011;9957;52.282;21.110;2023-01-29T10:20:18;49.83;;;15.10;;
19619;SDS011;9957;52.282;21.110;2023-01-29T10:25:13;29.43;;;9.00;;
19619;SDS011;9957;52.282;21.110;2023-01-29T10:27:40;35.43;;;12.63;;
19619;SDS011;9957;52.282;21.110;2023-01-29T10:30:21;46.60;;;13.10;;
19619;SDS011;9957;52.282;21.110;2023-01-29T10:32:50;28.80;;;12.03;;
19619;SDS011;9957;52.282;21.110;2023-01-29T10:35:26;28.60;;;8.33;;
19619;SDS011;9957;52.282;21.110;2023-01-29T10:37:53;29.27;;;8.90;;
19619;SDS011;9957;52.282;21.110;2023-01-29T10:40:28;19.97;;;7.50;;
19619;SDS011;9957;52.282;21.110;2023-01-29T10:42:59;26.37;;;9.07;;
19619;SDS011;9957;52.282;21.110;2023-01-29T10:53:25;26.47;;;9.03;;
19619;SDS011;9957;52.282;21.110;2023-01-29T10:55:55;32.03;;;9.87;;
19619;SDS011;9957;52.282;21.110;2023-01-29T11:00:49;21.87;;;7.87;;
19619;SDS011;9957;52.282;21.110;2023-01-29T11:03:16;27.60;;;9.50;;
19619;SDS011;9957;52.282;21.110;2023-01-29T11:05:46;26.37;;;8.60;;
19619;SDS011;9957;52.282;21.110;2023-01-29T11:08:17;28.13;;;8.77;;
19619;SDS011;9957;52.282;21.110;2023-01-29T11:10:58;24.17;;;9.10;;
19619;SDS011;9957;52.282;21.110;2023-01-29T11:13:28;34.10;;;9.47;;
19619;SDS011;9957;52.282;21.110;2023-01-29T11:15:56;17.60;;;7.97;;
19619;SDS011;9957;52.282;21.110;2023-01-29T11:18:22;30.93;;;11.27;;
19619;SDS011;9957;52.282;21.110;2023-01-29T11:20:58;22.90;;;8.83;;
19619;SDS011;9957;52.282;21.110;2023-01-29T11:23:29;23.00;;;9.13;;
19619;SDS011;9957;52.282;21.110;2023-01-29T11:25:55;21.40;;;8.03;;
19619;SDS011;9957;52.282;21.110;2023-01-29T11:28:35;23.50;;;8.00;;
19619;SDS011;9957;52.282;21.110;2023-01-29T11:31:01;21.13;;;6.73;;
19619;SDS011;9957;52.282;21.110;2023-01-29T11:33:28;16.63;;;7.30;;
19619;SDS011;9957;52.282;21.110;2023-01-29T11:35:55;22.73;;;7.83;;
19619;SDS011;9957;52.282;21.110;2023-01-29T11:38:26;20.47;;;7.80;;
19619;SDS011;9957;52.282;21.110;2023-01-29T11:40:52;20.03;;;7.23;;
19619;SDS011;9957;52.282;21.110;2023-01-29T11:45:45;22.90;;;8.13;;
19619;SDS011;9957;52.282;21.110;2023-01-29T11:48:13;28.03;;;9.00;;
19619;SDS011;9957;52.282;21.110;2023-01-29T11:50:40;26.03;;;8.50;;
19619;SDS011;9957;52.282;21.110;2023-01-29T11:53:06;24.20;;;7.93;;
19619;SDS011;9957;52.282;21.110;2023-01-29T11:55:43;58.50;;;15.70;;
19619;SDS011;9957;52.282;21.110;2023-01-29T11:58:12;62.87;;;15.53;;
19619;SDS011;9957;52.282;21.110;2023-01-29T12:00:41;29.13;;;9.00;;
19619;SDS011;9957;52.282;21.110;2023-01-29T12:03:21;35.37;;;10.53;;
19619;SDS011;9957;52.282;21.110;2023-01-29T12:06:02;37.00;;;11.23;;
19619;SDS011;9957;52.282;21.110;2023-01-29T12:08:38;37.10;;;12.63;;
19619;SDS011;9957;52.282;21.110;2023-01-29T12:11:09;22.40;;;8.13;;
19619;SDS011;9957;52.282;21.110;2023-01-29T12:13:35;36.13;;;12.53;;
19619;SDS011;9957;52.282;21.110;2023-01-29T12:16:09;37.33;;;13.53;;
19619;SDS011;9957;52.282;21.110;2023-01-29T12:18:42;33.73;;;11.63;;
19619;SDS011;9957;52.282;21.110;2023-01-29T12:36:37;37.60;;;13.10;;
19619;SDS011;9957;52.282;21.110;2023-01-29T12:39:07;47.23;;;14.13;;
19619;SDS011;9957;52.282;21.110;2023-01-29T12:41:44;32.33;;;10.23;;
19619;SDS011;9957;52.282;21.110;2023-01-29T12:44:15;32.73;;;12.90;;
19619;SDS011;9957;52.282;21.110;2023-01-29T12:46:44;29.40;;;11.20;;
19619;SDS011;9957;52.282;21.110;2023-01-29T12:49:15;23.83;;;10.07;;
19619;SDS011;9957;52.282;21.110;2023-01-29T12:54:26;23.80;;;9.13;;
19619;SDS011;9957;52.282;21.110;2023-01-29T12:56:57;27.37;;;9.33;;
19619;SDS011;9957;52.282;21.110;2023-01-29T13:01:55;27.97;;;10.20;;
19619;SDS011;9957;52.282;21.110;2023-01-29T13:07:08;24.50;;;8.70;;
19619;SDS011;9957;52.282;21.110;2023-01-29T13:09:36;23.80;;;9.80;;
19619;SDS011;9957;52.282;21.110;2023-01-29T13:12:06;22.73;;;9.20;;
19619;SDS011;9957;52.282;21.110;2023-01-29T13:19:51;26.17;;;10.50;;
19619;SDS011;9957;52.282;21.110;2023-01-29T13:22:23;32.20;;;12.73;;
19619;SDS011;9957;52.282;21.110;2023-01-29T13:24:53;23.40;;;9.30;;
19619;SDS011;9957;52.282;21.110;2023-01-29T13:27:26;31.07;;;12.23;;
19619;SDS011;9957;52.282;21.110;2023-01-29T13:29:53;34.87;;;12.37;;
19619;SDS011;9957;52.282;21.110;2023-01-29T13:32:22;39.97;;;14.20;;
19619;SDS011;9957;52.282;21.110;2023-01-29T13:34:49;32.67;;;12.50;;
19619;SDS011;9957;52.282;21.110;2023-01-29T13:37:22;25.40;;;10.13;;
19619;SDS011;9957;52.282;21.110;2023-01-29T13:39:52;32.93;;;11.13;;
19619;SDS011;9957;52.282;21.110;2023-01-29T13:42:19;34.43;;;12.77;;
19619;SDS011;9957;52.282;21.110;2023-01-29T13:44:50;29.43;;;12.20;;
19619;SDS011;9957;52.282;21.110;2023-01-29T13:47:22;31.40;;;10.70;;
19619;SDS011;9957;52.282;21.110;2023-01-29T13:49:56;38.03;;;13.57;;
19619;SDS011;9957;52.282;21.110;2023-01-29T13:55:00;41.97;;;14.77;;
19619;SDS011;9957;52.282;21.110;2023-01-29T13:57:35;25.70;;;10.53;;
19619;SDS011;9957;52.282;21.110;2023-01-29T14:00:01;29.47;;;10.37;;
19619;SDS011;9957;52.282;21.110;2023-01-29T14:02:30;34.40;;;10.83;;
19619;SDS011;9957;52.282;21.110;2023-01-29T14:10:15;30.83;;;10.17;;
19619;SDS011;9957;52.282;21.110;2023-01-29T14:12:41;33.90;;;11.07;;
19619;SDS011;9957;52.282;21.110;2023-01-29T14:15:18;31.43;;;11.70;;
19619;SDS011;9957;52.282;21.110;2023-01-29T14:23:05;25.93;;;10.67;;
19619;SDS011;9957;52.282;21.110;2023-01-29T14:25:33;36.87;;;11.17;;
19619;SDS011;9957;52.282;21.110;2023-01-29T14:28:00;31.47;;;11.97;;
19619;SDS011;9957;52.282;21.110;2023-01-29T14:30:30;36.23;;;12.80;;
19619;SDS011;9957;52.282;21.110;2023-01-29T14:32:56;40.53;;;12.67;;
19619;SDS011;9957;52.282;21.110;2023-01-29T14:35:23;54.13;;;13.87;;
19619;SDS011;9957;52.282;21.110;2023-01-29T14:37:51;45.07;;;13.67;;
19619;SDS011;9957;52.282;21.110;2023-01-29T14:45:30;33.23;;;12.17;;
19619;SDS011;9957;52.282;21.110;2023-01-29T14:53:12;40.33;;;12.00;;
19619;SDS011;9957;52.282;21.110;2023-01-29T14:58:13;39.67;;;13.00;;
19619;SDS011;9957;52.282;21.110;2023-01-29T15:00:42;31.70;;;12.37;;
19619;SDS011;9957;52.282;21.110;2023-01-29T15:03:12;48.67;;;14.60;;
19619;SDS011;9957;52.282;21.110;2023-01-29T15:05:41;39.10;;;13.27;;
19619;SDS011;9957;52.282;21.110;2023-01-29T15:08:14;42.20;;;14.57;;
19619;SDS011;9957;52.282;21.110;2023-01-29T15:10:44;37.97;;;13.33;;
19619;SDS011;9957;52.282;21.110;2023-01-29T15:13:24;42.97;;;11.87;;
19619;SDS011;9957;52.282;21.110;2023-01-29T15:15:55;43.63;;;14.30;;
19619;SDS011;9957;52.282;21.110;2023-01-29T15:18:27;40.50;;;13.33;;
19619;SDS011;9957;52.282;21.110;2023-01-29T15:21:03;39.50;;;13.60;;
19619;SDS011;9957;52.282;21.110;2023-01-29T15:23:30;38.33;;;12.27;;
19619;SDS011;9957;52.282;21.110;2023-01-29T15:25:58;46.77;;;14.37;;
19619;SDS011;9957;52.282;21.110;2023-01-29T15:28:26;49.17;;;15.13;;
19619;SDS011;9957;52.282;21.110;2023-01-29T15:30:55;44.73;;;14.90;;
19619;SDS011;9957;52.282;21.110;2023-01-29T15:33:23;38.87;;;12.83;;
19619;SDS011;9957;52.282;21.110;2023-01-29T15:35:53;44.03;;;15.50;;
19619;SDS011;9957;52.282;21.110;2023-01-29T15:38:21;40.67;;;14.97;;
19619;SDS011;9957;52.282;21.110;2023-01-29T15:41:01;53.13;;;16.37;;
19619;SDS011;9957;52.282;21.110;2023-01-29T15:43:33;44.97;;;16.23;;
19619;SDS011;9957;52.282;21.110;2023-01-29T15:46:03;40.90;;;14.40;;
19619;SDS011;9957;52.282;21.110;2023-01-29T15:48:33;48.07;;;15.50;;
19619;SDS011;9957;52.282;21.110;2023-01-29T15:51:00;38.27;;;15.10;;
19619;SDS011;9957;52.282;21.110;2023-01-29T15:53:31;42.93;;;14.53;;
19619;SDS011;9957;52.282;21.110;2023-01-29T15:55:58;50.80;;;13.00;;
19619;SDS011;9957;52.282;21.110;2023-01-29T15:58:29;36.67;;;10.97;;
19619;SDS011;9957;52.282;21.110;2023-01-29T16:00:56;34.77;;;13.10;;
19619;SDS011;9957;52.282;21.110;2023-01-29T16:03:23;38.00;;;11.90;;
19619;SDS011;9957;52.282;21.110;2023-01-29T16:05:50;37.17;;;13.23;;
19619;SDS011;9957;52.282;21.110;2023-01-29T16:08:17;35.80;;;11.10;;
19619;SDS011;9957;52.282;21.110;2023-01-29T16:10:46;29.57;;;11.43;;
19619;SDS011;9957;52.282;21.110;2023-01-29T16:13:15;40.90;;;14.27;;
19619;SDS011;9957;52.282;21.110;2023-01-29T16:15:54;38.33;;;13.70;;
19619;SDS011;9957;52.282;21.110;2023-01-29T16:18:22;32.07;;;11.77;;
19619;SDS011;9957;52.282;21.110;2023-01-29T16:20:52;26.90;;;10.27;;
19619;SDS011;9957;52.282;21.110;2023-01-29T16:23:20;29.63;;;11.13;;
19619;SDS011;9957;52.282;21.110;2023-01-29T16:25:47;42.67;;;15.10;;
19619;SDS011;9957;52.282;21.110;2023-01-29T16:28:14;50.00;;;21.07;;
19619;SDS011;9957;52.282;21.110;2023-01-29T16:30:40;50.73;;;16.73;;
19619;SDS011;9957;52.282;21.110;2023-01-29T16:33:07;36.67;;;14.03;;
19619;SDS011;9957;52.282;21.110;2023-01-29T16:35:37;39.60;;;13.63;;
19619;SDS011;9957;52.282;21.110;2023-01-29T16:38:06;39.63;;;14.60;;
19619;SDS011;9957;52.282;21.110;2023-01-29T16:40:38;57.93;;;15.57;;
19619;SDS011;9957;52.282;21.110;2023-01-29T16:46:03;46.67;;;14.63;;
19619;SDS011;9957;52.282;21.110;2023-01-29T16:48:30;38.03;;;13.57;;
19619;SDS011;9957;52.282;21.110;2023-01-29T16:51:03;39.43;;;13.07;;
19619;SDS011;9957;52.282;21.110;2023-01-29T16:53:30;43.60;;;15.53;;
19619;SDS011;9957;52.282;21.110;2023-01-29T16:56:00;34.47;;;13.77;;
19619;SDS011;9957;52.282;21.110;2023-01-29T16:58:27;47.57;;;14.60;;
19619;SDS011;9957;52.282;21.110;2023-01-29T17:01:07;44.03;;;16.30;;
19619;SDS011;9957;52.282;21.110;2023-01-29T17:03:34;40.37;;;13.80;;